VIR645 EDDF-EDDL
Flight info
| Callsign | VIR645 |
|---|---|
| Flight time | 0h 26m |
| Altitude | 20000 |
| Route | MARUN3W MARUN Y152 ARPEG Z850 ADEMI T854 DOMUX DOMUX1A |
| Aircraft | A339/H-SADE1E2E3GHIJ3J5M1P2RWXY/LB2D1 |
Departure
| Time | 2026-05-05 14:51 |
|---|---|
| Airport | Frankfurt Main Airport (EDDF) |
Arrival
| Time | 2026-05-05 15:18 |
|---|---|
| Airport | Düsseldorf Airport (EDDL) |
| Time | Latitude | Longitude | Altitude | Speed | Heading |
|---|---|---|---|---|---|
| 2026-05-05 14:51 | 50.07815 | 8.77250 | 9270 ft | 341 kts | 13° |
| 2026-05-05 14:51 | 50.10135 | 8.78110 | 9891 ft | 344 kts | 14° |
| 2026-05-05 14:51 | 50.12477 | 8.79006 | 10458 ft | 347 kts | 14° |
| 2026-05-05 14:51 | 50.14822 | 8.79907 | 11084 ft | 350 kts | 14° |
| 2026-05-05 14:52 | 50.17206 | 8.80824 | 11646 ft | 353 kts | 14° |
| 2026-05-05 14:52 | 50.19597 | 8.81743 | 12226 ft | 356 kts | 14° |
| 2026-05-05 14:52 | 50.22013 | 8.82670 | 12942 ft | 359 kts | 14° |
| 2026-05-05 14:52 | 50.24459 | 8.83608 | 13656 ft | 364 kts | 14° |
| 2026-05-05 14:53 | 50.26106 | 8.84156 | 14037 ft | 368 kts | 9° |
| 2026-05-05 14:53 | 50.28788 | 8.84464 | 14614 ft | 371 kts | 359° |
| 2026-05-05 14:53 | 50.31369 | 8.84096 | 15125 ft | 374 kts | 351° |
| 2026-05-05 14:53 | 50.33548 | 8.83584 | 15542 ft | 377 kts | 351° |
| 2026-05-05 14:54 | 50.36175 | 8.83003 | 16051 ft | 380 kts | 351° |
| 2026-05-05 14:54 | 50.38809 | 8.82442 | 16560 ft | 384 kts | 352° |
| 2026-05-05 14:54 | 50.41471 | 8.81883 | 17048 ft | 387 kts | 352° |
| 2026-05-05 14:54 | 50.44143 | 8.81323 | 17564 ft | 390 kts | 351° |
| 2026-05-05 14:55 | 50.46857 | 8.80751 | 18051 ft | 394 kts | 351° |
| 2026-05-05 14:55 | 50.49577 | 8.80175 | 18506 ft | 397 kts | 351° |
| 2026-05-05 14:55 | 50.52296 | 8.79597 | 18959 ft | 400 kts | 351° |
| 2026-05-05 14:55 | 50.55063 | 8.79007 | 19409 ft | 402 kts | 351° |
| 2026-05-05 14:56 | 50.57835 | 8.78266 | 19854 ft | 405 kts | 345° |
| 2026-05-05 14:56 | 50.60571 | 8.77048 | 20037 ft | 415 kts | 342° |
| 2026-05-05 14:56 | 50.63371 | 8.75752 | 20401 ft | 421 kts | 342° |
| 2026-05-05 14:56 | 50.66193 | 8.74458 | 20857 ft | 424 kts | 342° |
| 2026-05-05 14:57 | 50.68670 | 8.73326 | 21282 ft | 426 kts | 342° |
| 2026-05-05 14:57 | 50.71567 | 8.72004 | 21744 ft | 429 kts | 342° |
| 2026-05-05 14:57 | 50.74444 | 8.70692 | 22197 ft | 433 kts | 342° |
| 2026-05-05 14:57 | 50.77342 | 8.69368 | 22660 ft | 436 kts | 342° |
| 2026-05-05 14:58 | 50.80211 | 8.67792 | 23076 ft | 438 kts | 333° |
| 2026-05-05 14:58 | 50.82802 | 8.65288 | 23530 ft | 437 kts | 320° |
| 2026-05-05 14:58 | 50.84997 | 8.61964 | 23754 ft | 436 kts | 308° |
| 2026-05-05 14:58 | 50.86936 | 8.58281 | 23812 ft | 435 kts | 307° |
| 2026-05-05 14:59 | 50.88924 | 8.55035 | 23822 ft | 438 kts | 317° |
| 2026-05-05 14:59 | 50.94146 | 8.49189 | 23825 ft | 440 kts | 323° |
| 2026-05-05 14:59 | 50.98706 | 8.44102 | 23828 ft | 440 kts | 323° |
| 2026-05-05 14:59 | 51.03722 | 8.38553 | 23826 ft | 440 kts | 323° |
| 2026-05-05 15:00 | 51.08753 | 8.32998 | 23828 ft | 440 kts | 323° |
| 2026-05-05 15:00 | 51.12144 | 8.29248 | 23835 ft | 440 kts | 323° |
| 2026-05-05 15:00 | 51.18804 | 8.21864 | 23840 ft | 440 kts | 323° |
| 2026-05-05 15:00 | 51.23816 | 8.16290 | 23842 ft | 439 kts | 323° |
| 2026-05-05 15:01 | 51.28382 | 8.11198 | 23848 ft | 440 kts | 323° |
| 2026-05-05 15:01 | 51.30881 | 8.08408 | 23836 ft | 438 kts | 323° |
| 2026-05-05 15:01 | 51.33168 | 8.05853 | 23510 ft | 437 kts | 323° |
| 2026-05-05 15:01 | 51.35682 | 8.03037 | 22834 ft | 440 kts | 323° |
| 2026-05-05 15:02 | 51.38197 | 8.00215 | 21940 ft | 443 kts | 323° |
| 2026-05-05 15:02 | 51.40735 | 7.97359 | 21031 ft | 444 kts | 323° |
| 2026-05-05 15:02 | 51.43102 | 7.94245 | 20300 ft | 438 kts | 312° |
| 2026-05-05 15:02 | 51.44951 | 7.90439 | 19613 ft | 429 kts | 299° |
| 2026-05-05 15:03 | 51.46174 | 7.86127 | 18935 ft | 421 kts | 285° |
| 2026-05-05 15:03 | 51.46706 | 7.81568 | 18212 ft | 414 kts | 271° |
| 2026-05-05 15:03 | 51.46580 | 7.77583 | 17540 ft | 408 kts | 259° |
| 2026-05-05 15:03 | 51.45820 | 7.73258 | 16797 ft | 400 kts | 249° |
| 2026-05-05 15:04 | 51.44917 | 7.69078 | 16012 ft | 396 kts | 249° |
| 2026-05-05 15:04 | 51.44057 | 7.64899 | 15332 ft | 391 kts | 251° |
| 2026-05-05 15:04 | 51.43262 | 7.60784 | 14812 ft | 380 kts | 251° |
| 2026-05-05 15:04 | 51.42524 | 7.56774 | 14272 ft | 372 kts | 253° |
| 2026-05-05 15:05 | 51.41955 | 7.48745 | 13497 ft | 356 kts | 269° |
| 2026-05-05 15:05 | 51.42015 | 7.44735 | 13218 ft | 361 kts | 269° |
| 2026-05-05 15:05 | 51.42052 | 7.40723 | 12917 ft | 360 kts | 269° |
| 2026-05-05 15:06 | 51.42078 | 7.36741 | 12651 ft | 357 kts | 268° |
| 2026-05-05 15:06 | 51.42097 | 7.32750 | 12365 ft | 356 kts | 268° |
| 2026-05-05 15:06 | 51.42115 | 7.28784 | 12085 ft | 355 kts | 268° |
| 2026-05-05 15:06 | 51.42131 | 7.24879 | 11814 ft | 354 kts | 268° |
| 2026-05-05 15:07 | 51.42142 | 7.22233 | 11629 ft | 352 kts | 268° |
| 2026-05-05 15:07 | 51.41750 | 7.17777 | 11453 ft | 336 kts | 249° |
| 2026-05-05 15:07 | 51.40645 | 7.14620 | 11315 ft | 317 kts | 229° |
| 2026-05-05 15:07 | 51.39159 | 7.12167 | 11169 ft | 299 kts | 223° |
| 2026-05-05 15:08 | 51.37717 | 7.09853 | 10826 ft | 289 kts | 224° |
| 2026-05-05 15:08 | 51.36316 | 7.07564 | 10329 ft | 286 kts | 224° |
| 2026-05-05 15:08 | 51.34961 | 7.05326 | 10109 ft | 274 kts | 224° |
| 2026-05-05 15:08 | 51.33639 | 7.03139 | 9910 ft | 277 kts | 224° |
| 2026-05-05 15:09 | 51.32283 | 7.00902 | 9677 ft | 281 kts | 224° |
| 2026-05-05 15:09 | 51.31629 | 6.99822 | 9563 ft | 280 kts | 225° |
| 2026-05-05 15:09 | 51.30282 | 6.97602 | 9342 ft | 276 kts | 225° |
| 2026-05-05 15:09 | 51.28948 | 6.95404 | 9125 ft | 276 kts | 225° |
| 2026-05-05 15:10 | 51.27611 | 6.93204 | 8906 ft | 276 kts | 225° |
| 2026-05-05 15:10 | 51.26283 | 6.91023 | 8767 ft | 269 kts | 225° |
| 2026-05-05 15:10 | 51.25021 | 6.88954 | 8610 ft | 251 kts | 225° |
| 2026-05-05 15:10 | 51.23842 | 6.87019 | 8240 ft | 239 kts | 225° |
| 2026-05-05 15:11 | 51.22683 | 6.85123 | 7633 ft | 238 kts | 225° |
| 2026-05-05 15:11 | 51.21561 | 6.83291 | 7075 ft | 237 kts | 225° |
| 2026-05-05 15:11 | 51.20418 | 6.81387 | 6521 ft | 236 kts | 229° |
| 2026-05-05 15:11 | 51.19419 | 6.79314 | 6036 ft | 236 kts | 233° |
| 2026-05-05 15:12 | 51.18445 | 6.77223 | 5605 ft | 235 kts | 233° |
| 2026-05-05 15:12 | 51.17462 | 6.75132 | 5151 ft | 235 kts | 233° |
| 2026-05-05 15:12 | 51.16489 | 6.73082 | 4733 ft | 235 kts | 233° |
| 2026-05-05 15:12 | 51.15485 | 6.70983 | 4322 ft | 235 kts | 232° |
| 2026-05-05 15:13 | 51.14699 | 6.68710 | 3833 ft | 235 kts | 256° |
| 2026-05-05 15:13 | 51.14625 | 6.66429 | 3473 ft | 232 kts | 281° |
| 2026-05-05 15:13 | 51.15079 | 6.63996 | 3117 ft | 227 kts | 292° |
| 2026-05-05 15:13 | 51.15668 | 6.61647 | 3004 ft | 230 kts | 294° |
| 2026-05-05 15:14 | 51.16431 | 6.59548 | 3001 ft | 208 kts | 316° |
| 2026-05-05 15:14 | 51.17634 | 6.58369 | 3010 ft | 208 kts | 344° |
| 2026-05-05 15:14 | 51.18582 | 6.58179 | 2947 ft | 207 kts | 7° |
| 2026-05-05 15:14 | 51.19919 | 6.59004 | 2771 ft | 207 kts | 36° |
| 2026-05-05 15:15 | 51.20939 | 6.60552 | 2503 ft | 205 kts | 50° |
| 2026-05-05 15:15 | 51.21811 | 6.62335 | 2220 ft | 202 kts | 53° |
| 2026-05-05 15:15 | 51.22657 | 6.64110 | 1937 ft | 199 kts | 52° |
| 2026-05-05 15:15 | 51.23490 | 6.65848 | 1765 ft | 193 kts | 52° |
| 2026-05-05 15:16 | 51.24275 | 6.67504 | 1851 ft | 190 kts | 53° |
| 2026-05-05 15:16 | 51.25054 | 6.69230 | 1383 ft | 190 kts | 53° |
| 2026-05-05 15:16 | 51.25851 | 6.70862 | 921 ft | 181 kts | 49° |
| 2026-05-05 15:16 | 51.26623 | 6.72373 | 596 ft | 170 kts | 49° |
| 2026-05-05 15:17 | 51.27316 | 6.73819 | 334 ft | 167 kts | 50° |
| 2026-05-05 15:17 | 51.27994 | 6.75266 | 163 ft | 155 kts | 51° |
| 2026-05-05 15:17 | 51.28581 | 6.76487 | 129 ft | 105 kts | 52° |
| 2026-05-05 15:17 | 51.28900 | 6.77152 | 129 ft | 65 kts | 55° |
| 2026-05-05 15:18 | 51.29016 | 6.77429 | 133 ft | 19 kts | 69° |
| 2026-05-05 15:18 | 51.28971 | 6.77617 | 129 ft | 19 kts | 141° |
| 2026-05-05 15:18 | 51.28881 | 6.77594 | 135 ft | 13 kts | 226° |
| 2026-05-05 15:18 | 51.28823 | 6.77479 | 135 ft | 14 kts | 232° |
| 2026-05-05 15:19 | 51.28760 | 6.77348 | 135 ft | 16 kts | 233° |
| 2026-05-05 15:19 | 51.28693 | 6.77205 | 135 ft | 17 kts | 232° |
| 2026-05-05 15:19 | 51.28619 | 6.77051 | 135 ft | 18 kts | 232° |
| 2026-05-05 15:19 | 51.28540 | 6.76887 | 128 ft | 20 kts | 233° |
| 2026-05-05 15:20 | 51.28451 | 6.76698 | 126 ft | 24 kts | 232° |
| 2026-05-05 15:20 | 51.28343 | 6.76481 | 126 ft | 25 kts | 231° |
| 2026-05-05 15:20 | 51.28241 | 6.76258 | 130 ft | 25 kts | 231° |
| 2026-05-05 15:20 | 51.28139 | 6.76044 | 135 ft | 24 kts | 234° |
| 2026-05-05 15:21 | 51.28031 | 6.75848 | 135 ft | 21 kts | 206° |
| 2026-05-05 15:21 | 51.27884 | 6.75824 | 129 ft | 22 kts | 173° |
| 2026-05-05 15:21 | 51.27844 | 6.75943 | 131 ft | 12 kts | 94° |
| 2026-05-05 15:21 | 51.27837 | 6.76079 | 134 ft | 12 kts | 112° |
| 2026-05-05 15:22 | 51.27766 | 6.76139 | 131 ft | 12 kts | 160° |
| 2026-05-05 15:22 | 51.27731 | 6.76161 | 128 ft | 0 kts | 159° |